Аэропорт: Мирный. Мирный

ICAO: UERR

METAR:
2019/03/24 09:00
UERR 240900Z 34005MPS CAVOK M13/M22 Q1013 R25/493030 NOSIG RMK QFE729
METAR:
2019/03/26 12:21
TAF UERR 261100Z 2612/2712 34005MPS 9999 SCT040